createdAt,value
2022-08-18T00:03:11.771Z,100942.03
2022-08-18T00:13:51.108Z,100933.19
2022-08-18T00:24:12.655Z,100933.06
2022-08-18T00:34:34.168Z,100937.66
2022-08-18T00:44:56.667Z,100953.41
2022-08-18T00:55:19.348Z,100958.78
2022-08-18T01:05:48.289Z,100957.00
2022-08-18T01:16:28.932Z,100944.72
2022-08-18T01:26:50.621Z,100949.56
2022-08-18T01:37:12.129Z,100955.84
2022-08-18T01:47:48.213Z,100953.09
2022-08-18T01:58:10.778Z,100936.94
2022-08-18T02:08:32.359Z,100923.19
2022-08-18T02:18:55.370Z,100914.91
2022-08-18T02:29:16.987Z,100905.91
2022-08-18T02:39:38.750Z,100905.44
2022-08-18T02:50:00.317Z,100904.25
2022-08-18T03:00:21.907Z,100907.84
2022-08-18T03:10:43.414Z,100921.09
2022-08-18T03:21:10.062Z,100935.19
2022-08-18T03:31:31.636Z,100942.72
2022-08-18T03:42:00.190Z,100950.41
2022-08-18T03:52:23.491Z,100957.00
2022-08-18T04:02:45.035Z,100967.41
2022-08-18T04:13:06.582Z,100977.94
2022-08-18T04:23:28.195Z,100975.53
2022-08-18T04:33:50.002Z,100969.72
2022-08-18T04:44:12.626Z,100981.88
2022-08-18T04:54:38.767Z,100983.81
2022-08-18T05:05:03.372Z,100986.47
2022-08-18T05:15:24.920Z,100991.56
2022-08-18T05:25:47.322Z,100997.59
2022-08-18T05:36:15.243Z,100985.63
2022-08-18T05:46:53.421Z,100989.09
2022-08-18T05:57:19.938Z,101000.53
2022-08-18T06:07:46.788Z,100997.13
2022-08-18T06:18:31.157Z,101003.47
2022-08-18T06:29:03.816Z,101015.72
2022-08-18T06:39:41.726Z,101016.00
2022-08-18T06:50:12.396Z,101025.88
2022-08-18T07:00:36.551Z,101028.53
2022-08-18T07:11:11.992Z,101024.22
2022-08-18T07:21:37.912Z,101047.59
2022-08-18T07:32:04.654Z,101062.97
2022-08-18T07:43:02.470Z,101062.59
2022-08-18T07:53:27.277Z,101066.91
2022-08-18T08:03:57.310Z,101091.66
2022-08-18T08:14:41.419Z,101081.13
2022-08-18T08:25:17.510Z,101081.78
2022-08-18T08:36:25.996Z,101084.44
2022-08-18T08:46:51.117Z,101088.47
2022-08-18T08:57:14.821Z,101084.50
2022-08-18T09:08:00.644Z,101096.63
2022-08-18T09:18:29.669Z,101108.91
2022-08-18T09:28:59.630Z,101094.53
2022-08-18T09:39:56.483Z,101102.75
2022-08-18T09:50:28.372Z,101100.44
2022-08-18T10:01:28.130Z,101110.06
2022-08-18T10:12:19.595Z,101096.22
2022-08-18T10:22:48.365Z,101114.66
2022-08-18T10:33:18.310Z,101127.97
2022-08-18T10:43:46.201Z,101119.28
2022-08-18T10:54:29.867Z,101126.94
2022-08-18T11:04:59.252Z,101129.81
2022-08-18T11:26:19.540Z,101157.41
2022-08-18T11:36:49.368Z,101148.47
2022-08-18T11:47:23.642Z,101146.81
2022-08-18T11:57:59.203Z,101146.16
2022-08-18T12:08:56.163Z,101144.59
2022-08-18T12:19:13.340Z,101148.41
2022-08-18T12:29:43.296Z,101138.03
2022-08-18T12:40:06.200Z,101117.22
2022-08-18T12:50:30.859Z,101121.75
2022-08-18T13:00:55.468Z,101137.72
2022-08-18T13:11:23.773Z,101141.88
2022-08-18T13:21:46.631Z,101133.59
2022-08-18T13:32:09.491Z,101112.94
2022-08-18T13:42:50.250Z,101124.41
2022-08-18T13:53:16.440Z,101140.53
2022-08-18T14:03:47.517Z,101142.09
2022-08-18T14:14:09.459Z,101151.78
2022-08-18T14:24:51.310Z,101168.25
2022-08-18T14:35:32.072Z,101166.81
2022-08-18T14:45:58.104Z,101148.81
2022-08-18T14:56:19.950Z,101164.97
2022-08-18T15:06:43.557Z,101162.13
2022-08-18T15:17:17.984Z,101160.69
2022-08-18T15:27:42.549Z,101157.06
2022-08-18T15:38:05.646Z,101159.22
2022-08-18T15:48:28.650Z,101150.69
2022-08-18T15:58:51.288Z,101153.44
2022-08-18T16:09:14.334Z,101142.88
2022-08-18T16:19:37.396Z,101144.06
2022-08-18T16:29:59.266Z,101133.28
2022-08-18T16:40:21.211Z,101144.78
2022-08-18T16:50:45.308Z,101129.66
2022-08-18T17:01:25.492Z,101140.75
2022-08-18T17:11:54.101Z,101161.72
2022-08-18T17:22:17.624Z,101160.50
2022-08-18T17:32:54.726Z,101163.81
2022-08-18T17:43:21.777Z,101172.09
2022-08-18T17:53:43.731Z,101162.94
2022-08-18T18:04:05.512Z,101158.31
2022-08-18T18:14:36.039Z,101167.91
2022-08-18T18:25:04.531Z,101159.09
2022-08-18T18:35:31.261Z,101164.50
2022-08-18T18:46:24.122Z,101143.50
2022-08-18T18:56:53.147Z,101144.56
2022-08-18T19:07:24.038Z,101153.09
2022-08-18T19:17:51.430Z,101151.28
2022-08-18T19:28:19.982Z,101161.88
2022-08-18T19:39:02.082Z,101162.03
2022-08-18T19:49:53.233Z,101154.25
2022-08-18T20:00:22.959Z,101160.13
2022-08-18T20:11:20.927Z,101172.50
2022-08-18T20:22:05.910Z,101167.66
2022-08-18T20:32:34.428Z,101163.44
2022-08-18T20:43:07.232Z,101170.47
2022-08-18T20:53:55.330Z,101167.75
2022-08-18T21:04:52.523Z,101168.13
2022-08-18T21:15:14.086Z,101172.50
2022-08-18T21:25:37.091Z,101180.03
2022-08-18T21:35:58.662Z,101173.94
2022-08-18T21:46:28.084Z,101168.00
2022-08-18T21:57:20.318Z,101173.69
2022-08-18T22:07:48.452Z,101169.84
2022-08-18T22:18:16.110Z,101189.28
2022-08-18T22:29:00.955Z,101190.84
2022-08-18T22:39:30.121Z,101193.75
2022-08-18T22:49:51.925Z,101202.38
2022-08-18T23:00:19.121Z,101203.19
2022-08-18T23:10:40.708Z,101182.63
2022-08-18T23:21:02.269Z,101195.06
2022-08-18T23:31:23.791Z,101184.25
2022-08-18T23:41:45.277Z,101194.53
2022-08-18T23:52:06.826Z,101195.66
